WetterOnline ( https://www.wetteronline.de )

Wetter aktuell Osnabrück

Aktuelles Wetter: Belm (103m)

6-stündlich | Neueste Meldungen
Ortszeit Temperatur Wetter
So, 19.09. 14:00 14.9° C bedeckt
So, 19.09. 8:00 11.9° C bedeckt
So, 19.09. 2:00 14.0° C bedeckt
Sa, 18.09. 20:00 16.0° C bedeckt
Sa, 18.09. 14:00 15.8° C bedeckt
Sa, 18.09. 8:00 7.9° C wolkig
Sa, 18.09. 2:00 11.1° C wolkig
Fr, 17.09. 20:00 15.5° C bewölkt
Ortszeit Temperatur Wetter
So, 19.09. 17:00 14.3° C bedeckt
So, 19.09. 16:50 14.3° C bedeckt
So, 19.09. 16:40 14.4° C bedeckt
So, 19.09. 16:30 14.6° C bedeckt
So, 19.09. 16:20 14.6° C bedeckt
So, 19.09. 16:10 14.9° C bedeckt
So, 19.09. 16:00 14.9° C bedeckt
So, 19.09. 15:30 14.7° C bedeckt
So, 19.09. 15:00 14.7° C bedeckt
So, 19.09. 14:30 15.0° C bedeckt
So, 19.09. 14:00 14.9° C bedeckt
Ortszeit Relative Feuchte Sichtweite
So, 19.09. 14:00 67% 65 km
So, 19.09. 8:00 95% 28 km
So, 19.09. 2:00 90% >70 km
Sa, 18.09. 20:00 84% 50 km
Sa, 18.09. 14:00 79% 50 km
Sa, 18.09. 8:00 98% 11 km
Sa, 18.09. 2:00 99% 13 km
Fr, 17.09. 20:00 89% 26 km
Ortszeit Relative Feuchte Sichtweite
So, 19.09. 17:00 69% 50 km
So, 19.09. 16:50 69% -
So, 19.09. 16:40 68% -
So, 19.09. 16:30 67% 50 km
So, 19.09. 16:20 67% -
So, 19.09. 16:10 66% -
So, 19.09. 16:00 66% 65 km
So, 19.09. 15:30 65% >70 km
So, 19.09. 15:00 66% 65 km
So, 19.09. 14:30 67% >70 km
So, 19.09. 14:00 67% 65 km
Ortszeit Niederschlagsmenge Niederschlagsart
So, 19.09. 14:00 0.0 l/m2 in 6 Std. -
So, 19.09. 8:00 0.0 l/m2 in 12 Std. -
So, 19.09. 2:00 0.0 l/m2 in 6 Std. -
Sa, 18.09. 20:00 0.0 l/m2 in 12 Std. -
Sa, 18.09. 14:00 0.0 l/m2 in 6 Std. -
Sa, 18.09. 8:00 0.0 l/m2 in 12 Std. -
Sa, 18.09. 2:00 0.0 l/m2 in 6 Std. -
Fr, 17.09. 20:00 0.2 l/m2 in 12 Std. Regen
Ortszeit Niederschlagsmenge Niederschlagsart
So, 19.09. 17:00 0.0 l/m2 in 1 Std. -
So, 19.09. 16:50 keine Meldung -
So, 19.09. 16:40 keine Meldung -
So, 19.09. 16:30 0.0 l/m2 in 1 Std. -
So, 19.09. 16:20 keine Meldung -
So, 19.09. 16:10 keine Meldung -
So, 19.09. 16:00 0.0 l/m2 in 1 Std. -
So, 19.09. 15:30 0.0 l/m2 in 1 Std. -
So, 19.09. 15:00 0.0 l/m2 in 1 Std. -
So, 19.09. 14:30 0.0 l/m2 in 1 Std. -
So, 19.09. 14:00 0.0 l/m2 in 1 Std. -
Ortszeit Stärke Spitze Richtung
km/h Bft. km/h Grad Sektor
So, 19.09. 14:00 14 3 29 70° O
So, 19.09. 8:00 7 2 22 50° NO
So, 19.09. 2:00 9 2 24 70° O
Sa, 18.09. 20:00 4 1 14 80° O
Sa, 18.09. 14:00 7 2 18 10° N
Sa, 18.09. 8:00 0 0 4 - -
Sa, 18.09. 2:00 4 1 14 130° SO
Fr, 17.09. 20:00 4 1 22 350° N
Ortszeit Stärke Spitze Richtung
km/h Bft. km/h Grad Sektor
So, 19.09. 17:00 9 2 24 90° O
So, 19.09. 16:50 9 2 - 90° O
So, 19.09. 16:40 13 3 - 80° O
So, 19.09. 16:30 13 3 24 80° O
So, 19.09. 16:20 13 3 - 80° O
So, 19.09. 16:10 11 2 - 90° O
So, 19.09. 16:00 13 3 24 80° O
So, 19.09. 15:30 13 3 24 80° O
So, 19.09. 15:00 15 3 28 70° O
So, 19.09. 14:30 13 3 24 80° O
So, 19.09. 14:00 14 3 25 70° O
Ortszeit Untergrenze Bedeckung Gattung
total tief tief mittel hoch
So, 19.09. 14:00 1110 m 8/8 8/8 - - -
So, 19.09. 8:00 120 m 8/8 8/8 - - -
So, 19.09. 2:00 1440 m 8/8 8/8 - - -
Sa, 18.09. 20:00 1410 m 8/8 8/8 - - -
Sa, 18.09. 14:00 900 m 8/8 8/8 - - -
Sa, 18.09. 8:00 10500 m 8/8 0/8 - - -
Sa, 18.09. 2:00 10500 m 8/8 0/8 - - -
Fr, 17.09. 20:00 1260 m 7/8 7/8 - - -
Ortszeit Bedeckungsgrad in Achtel und Wolkenuntergrenze
So, 19.09. 17:00 8(1170m)
So, 19.09. 16:50 8(1170m)
So, 19.09. 16:40 8(1170m)
So, 19.09. 16:30 8(1200m)
So, 19.09. 16:20 8(1200m)
So, 19.09. 16:10 8(1200m)
So, 19.09. 16:00 8(1200m)
So, 19.09. 15:30 8(1200m)
So, 19.09. 15:00 8(1200m)
So, 19.09. 14:30 8(1140m)
So, 19.09. 14:00 8(1110m)
Ortszeit Luftdruck NN (hPa) Tendenz (hPa in 3 Std.)
So, 19.09. 14:00 1018 + 0,1
So, 19.09. 8:00 1017 0,0
So, 19.09. 2:00 1017 - 0,4
Sa, 18.09. 20:00 1017 0,0
Sa, 18.09. 14:00 1018 + 0,1
Sa, 18.09. 8:00 1018 + 0,5
Sa, 18.09. 2:00 1017 + 0,4
Fr, 17.09. 20:00 1015 - 0,1
Ortszeit Luftdruck NN (hPa) Tendenz (hPa in 3 Std.)
So, 19.09. 17:00 1017 - 0,2
So, 19.09. 16:50 1017 keine Meldung
So, 19.09. 16:40 1017 keine Meldung
So, 19.09. 16:30 1017 - 0,3
So, 19.09. 16:20 1017 keine Meldung
So, 19.09. 16:10 1017 keine Meldung
So, 19.09. 16:00 1017 - 0,3
So, 19.09. 15:30 1017 - 0,4
So, 19.09. 15:00 1018 - 0,1
So, 19.09. 14:30 1018 0,0
So, 19.09. 14:00 1018 + 0,1
Ortszeit Schneehöhe (cm)
So, 19.09. 14:00 -
So, 19.09. 8:00 -
So, 19.09. 2:00 -
Sa, 18.09. 20:00 -
Sa, 18.09. 14:00 -
Sa, 18.09. 8:00 -
Sa, 18.09. 2:00 -
Fr, 17.09. 20:00 -
Ortszeit Schneehöhe (cm)
So, 19.09. 17:00 -
So, 19.09. 16:50 -
So, 19.09. 16:40 -
So, 19.09. 16:30 -
So, 19.09. 16:20 -
So, 19.09. 16:10 -
So, 19.09. 16:00 -
So, 19.09. 15:30 -
So, 19.09. 15:00 -
So, 19.09. 14:30 -
So, 19.09. 14:00 -
Link zu dieser Seite / Seite empfehlen

Das Wetter in ...